sensor_id;sensor_type;location;lat;lon;timestamp;pressure;altitude;pressure_sealevel;temperature;humidity
39491;BME280;25175;50.140;18.990;2022-09-30T00:03:01;97713.44;;;8.83;71.34
39491;BME280;25175;50.140;18.990;2022-09-30T00:06:06;97707.66;;;8.81;70.53
39491;BME280;25175;50.140;18.990;2022-09-30T00:09:09;97702.81;;;8.78;71.07
39491;BME280;25175;50.140;18.990;2022-09-30T00:12:12;97698.81;;;8.76;71.07
39491;BME280;25175;50.140;18.990;2022-09-30T00:15:15;97700.44;;;8.77;71.20
39491;BME280;25175;50.140;18.990;2022-09-30T00:18:17;97696.44;;;8.74;70.94
39491;BME280;25175;50.140;18.990;2022-09-30T00:21:21;97700.03;;;8.73;71.26
39491;BME280;25175;50.140;18.990;2022-09-30T00:24:24;97706.66;;;8.76;71.66
39491;BME280;25175;50.140;18.990;2022-09-30T00:27:26;97698.03;;;8.75;71.67
39491;BME280;25175;50.140;18.990;2022-09-30T00:30:28;97697.84;;;8.77;71.57
39491;BME280;25175;50.140;18.990;2022-09-30T00:33:30;97700.22;;;8.78;72.24
39491;BME280;25175;50.140;18.990;2022-09-30T00:36:35;97713.44;;;8.83;72.00
39491;BME280;25175;50.140;18.990;2022-09-30T00:39:38;97703.63;;;8.85;71.49
39491;BME280;25175;50.140;18.990;2022-09-30T00:42:40;97705.41;;;8.85;72.20
39491;BME280;25175;50.140;18.990;2022-09-30T00:45:48;97718.47;;;8.85;71.95
39491;BME280;25175;50.140;18.990;2022-09-30T00:48:53;97721.72;;;8.80;72.01
39491;BME280;25175;50.140;18.990;2022-09-30T00:51:58;97716.13;;;8.77;72.63
39491;BME280;25175;50.140;18.990;2022-09-30T00:55:04;97714.50;;;8.76;72.52
39491;BME280;25175;50.140;18.990;2022-09-30T00:58:10;97724.94;;;8.76;72.34
39491;BME280;25175;50.140;18.990;2022-09-30T01:01:13;97737.22;;;8.75;72.60
39491;BME280;25175;50.140;18.990;2022-09-30T01:04:18;97736.41;;;8.75;72.17
39491;BME280;25175;50.140;18.990;2022-09-30T01:07:23;97716.91;;;8.71;72.61
39491;BME280;25175;50.140;18.990;2022-09-30T01:10:26;97732.78;;;8.76;72.65
39491;BME280;25175;50.140;18.990;2022-09-30T01:13:29;97728.16;;;8.78;72.59
39491;BME280;25175;50.140;18.990;2022-09-30T01:16:42;97719.31;;;8.79;72.50
39491;BME280;25175;50.140;18.990;2022-09-30T01:20:21;97716.13;;;8.77;72.74
39491;BME280;25175;50.140;18.990;2022-09-30T01:23:47;97718.13;;;8.75;73.00
39491;BME280;25175;50.140;18.990;2022-09-30T01:27:11;97721.34;;;8.77;73.24
39491;BME280;25175;50.140;18.990;2022-09-30T01:30:19;97719.50;;;8.77;73.09
39491;BME280;25175;50.140;18.990;2022-09-30T01:33:34;97724.53;;;8.79;72.95
39491;BME280;25175;50.140;18.990;2022-09-30T01:36:44;97735.16;;;8.84;73.37
39491;BME280;25175;50.140;18.990;2022-09-30T01:39:55;97742.16;;;8.90;73.06
39491;BME280;25175;50.140;18.990;2022-09-30T01:43:06;97735.28;;;8.95;73.36
39491;BME280;25175;50.140;18.990;2022-09-30T01:46:18;97732.63;;;9.02;73.73
39491;BME280;25175;50.140;18.990;2022-09-30T01:49:29;97738.63;;;9.09;73.50
39491;BME280;25175;50.140;18.990;2022-09-30T01:52:37;97726.75;;;9.13;72.56
39491;BME280;25175;50.140;18.990;2022-09-30T01:55:44;97731.97;;;9.13;72.97
39491;BME280;25175;50.140;18.990;2022-09-30T01:58:53;97736.19;;;9.14;73.15
39491;BME280;25175;50.140;18.990;2022-09-30T02:02:01;97734.97;;;9.16;72.86
39491;BME280;25175;50.140;18.990;2022-09-30T02:05:11;97729.16;;;9.14;73.42
39491;BME280;25175;50.140;18.990;2022-09-30T02:08:20;97736.19;;;9.14;73.21
39491;BME280;25175;50.140;18.990;2022-09-30T02:11:26;97745.41;;;9.16;73.58
39491;BME280;25175;50.140;18.990;2022-09-30T02:14:34;97739.56;;;9.21;73.08
39491;BME280;25175;50.140;18.990;2022-09-30T02:17:40;97742.34;;;9.26;73.19
39491;BME280;25175;50.140;18.990;2022-09-30T02:20:48;97731.09;;;9.25;73.37
39491;BME280;25175;50.140;18.990;2022-09-30T02:23:55;97734.91;;;9.29;73.40
39491;BME280;25175;50.140;18.990;2022-09-30T02:27:01;97738.28;;;9.30;73.55
39491;BME280;25175;50.140;18.990;2022-09-30T02:30:05;97740.88;;;9.36;73.61
39491;BME280;25175;50.140;18.990;2022-09-30T02:33:11;97748.69;;;9.43;73.24
39491;BME280;25175;50.140;18.990;2022-09-30T02:36:18;97743.00;;;9.46;72.52
39491;BME280;25175;50.140;18.990;2022-09-30T02:39:27;97745.22;;;9.49;73.19
39491;BME280;25175;50.140;18.990;2022-09-30T02:42:32;97750.00;;;9.52;73.16
39491;BME280;25175;50.140;18.990;2022-09-30T02:45:42;97740.16;;;9.54;72.73
39491;BME280;25175;50.140;18.990;2022-09-30T02:48:49;97738.16;;;9.56;72.83
39491;BME280;25175;50.140;18.990;2022-09-30T02:52:06;97747.75;;;9.55;72.33
39491;BME280;25175;50.140;18.990;2022-09-30T02:55:17;97748.59;;;9.56;72.87
39491;BME280;25175;50.140;18.990;2022-09-30T02:58:21;97746.56;;;9.58;73.05
39491;BME280;25175;50.140;18.990;2022-09-30T03:01:25;97745.53;;;9.59;72.74
39491;BME280;25175;50.140;18.990;2022-09-30T03:04:31;97748.16;;;9.59;72.53
39491;BME280;25175;50.140;18.990;2022-09-30T03:07:36;97750.59;;;9.54;72.48
39491;BME280;25175;50.140;18.990;2022-09-30T03:10:39;97749.22;;;9.51;73.08
39491;BME280;25175;50.140;18.990;2022-09-30T03:14:04;97746.81;;;9.50;73.05
39491;BME280;25175;50.140;18.990;2022-09-30T03:20:45;97749.47;;;9.43;72.98
39491;BME280;25175;50.140;18.990;2022-09-30T03:27:46;97757.47;;;9.48;73.30
39491;BME280;25175;50.140;18.990;2022-09-30T03:31:00;97757.69;;;9.47;73.52
39491;BME280;25175;50.140;18.990;2022-09-30T03:34:12;97752.66;;;9.45;73.83
39491;BME280;25175;50.140;18.990;2022-09-30T03:37:24;97758.13;;;9.44;73.48
39491;BME280;25175;50.140;18.990;2022-09-30T03:40:35;97760.94;;;9.42;73.98
39491;BME280;25175;50.140;18.990;2022-09-30T03:43:43;97765.78;;;9.39;73.54
39491;BME280;25175;50.140;18.990;2022-09-30T03:46:50;97765.19;;;9.37;74.39
39491;BME280;25175;50.140;18.990;2022-09-30T03:49:57;97770.84;;;9.34;74.18
39491;BME280;25175;50.140;18.990;2022-09-30T03:53:02;97775.50;;;9.32;74.36
39491;BME280;25175;50.140;18.990;2022-09-30T03:56:05;97768.44;;;9.32;74.75
39491;BME280;25175;50.140;18.990;2022-09-30T03:59:10;97779.25;;;9.36;75.15
39491;BME280;25175;50.140;18.990;2022-09-30T04:02:13;97767.97;;;9.42;75.37
39491;BME280;25175;50.140;18.990;2022-09-30T04:05:15;97780.19;;;9.48;75.53
39491;BME280;25175;50.140;18.990;2022-09-30T04:08:18;97774.75;;;9.56;75.06
39491;BME280;25175;50.140;18.990;2022-09-30T04:11:20;97782.56;;;9.62;75.09
39491;BME280;25175;50.140;18.990;2022-09-30T04:14:24;97785.75;;;9.64;74.86
39491;BME280;25175;50.140;18.990;2022-09-30T04:17:26;97781.34;;;9.65;74.57
39491;BME280;25175;50.140;18.990;2022-09-30T04:20:29;97778.28;;;9.68;74.35
39491;BME280;25175;50.140;18.990;2022-09-30T04:23:33;97779.50;;;9.65;74.46
39491;BME280;25175;50.140;18.990;2022-09-30T04:26:35;97775.88;;;9.66;74.08
39491;BME280;25175;50.140;18.990;2022-09-30T04:29:39;97782.13;;;9.65;74.13
39491;BME280;25175;50.140;18.990;2022-09-30T04:32:41;97781.34;;;9.65;74.58
39491;BME280;25175;50.140;18.990;2022-09-30T04:35:45;97793.16;;;9.67;74.73
39491;BME280;25175;50.140;18.990;2022-09-30T04:38:47;97791.34;;;9.68;74.66
39491;BME280;25175;50.140;18.990;2022-09-30T04:41:49;97787.94;;;9.67;75.29
39491;BME280;25175;50.140;18.990;2022-09-30T04:44:55;97796.38;;;9.69;74.63
39491;BME280;25175;50.140;18.990;2022-09-30T04:47:57;97790.72;;;9.72;74.78
39491;BME280;25175;50.140;18.990;2022-09-30T04:50:59;97789.72;;;9.73;74.79
39491;BME280;25175;50.140;18.990;2022-09-30T04:54:02;97803.56;;;9.74;74.89
39491;BME280;25175;50.140;18.990;2022-09-30T04:57:04;97801.56;;;9.76;74.85
39491;BME280;25175;50.140;18.990;2022-09-30T05:00:09;97800.75;;;9.75;75.07
39491;BME280;25175;50.140;18.990;2022-09-30T05:03:12;97805.16;;;9.75;75.14
39491;BME280;25175;50.140;18.990;2022-09-30T05:06:15;97792.91;;;9.75;75.35
39491;BME280;25175;50.140;18.990;2022-09-30T05:09:17;97797.13;;;9.76;75.07
39491;BME280;25175;50.140;18.990;2022-09-30T05:12:19;97786.69;;;9.70;75.08
39491;BME280;25175;50.140;18.990;2022-09-30T05:15:22;97791.34;;;9.68;75.99
39491;BME280;25175;50.140;18.990;2022-09-30T05:18:24;97794.41;;;9.65;75.95
39491;BME280;25175;50.140;18.990;2022-09-30T05:21:27;97803.25;;;9.64;75.91
39491;BME280;25175;50.140;18.990;2022-09-30T05:24:29;97808.47;;;9.64;76.31
39491;BME280;25175;50.140;18.990;2022-09-30T05:27:32;97804.88;;;9.65;75.63
39491;BME280;25175;50.140;18.990;2022-09-30T05:30:35;97812.84;;;9.70;76.64
39491;BME280;25175;50.140;18.990;2022-09-30T05:33:38;97797.16;;;9.70;76.22
39491;BME280;25175;50.140;18.990;2022-09-30T05:36:41;97813.84;;;9.75;75.99
39491;BME280;25175;50.140;18.990;2022-09-30T05:39:44;97815.44;;;9.76;75.91
39491;BME280;25175;50.140;18.990;2022-09-30T05:42:46;97824.09;;;9.77;76.36
39491;BME280;25175;50.140;18.990;2022-09-30T05:45:53;97823.06;;;9.78;76.08
39491;BME280;25175;50.140;18.990;2022-09-30T05:48:55;97827.66;;;9.82;76.12
39491;BME280;25175;50.140;18.990;2022-09-30T05:51:58;97823.63;;;9.86;76.38
39491;BME280;25175;50.140;18.990;2022-09-30T05:55:00;97823.78;;;9.91;76.56
39491;BME280;25175;50.140;18.990;2022-09-30T05:58:03;97831.59;;;9.98;76.03
39491;BME280;25175;50.140;18.990;2022-09-30T06:01:08;97838.59;;;10.04;76.27
39491;BME280;25175;50.140;18.990;2022-09-30T06:04:11;97831.09;;;10.07;75.94
39491;BME280;25175;50.140;18.990;2022-09-30T06:07:13;97832.25;;;10.11;76.25
39491;BME280;25175;50.140;18.990;2022-09-30T06:10:15;97846.72;;;10.14;75.50
39491;BME280;25175;50.140;18.990;2022-09-30T06:13:17;97839.28;;;10.17;75.24
39491;BME280;25175;50.140;18.990;2022-09-30T06:16:21;97840.66;;;10.20;75.55
39491;BME280;25175;50.140;18.990;2022-09-30T06:19:24;97838.41;;;10.23;76.29
39491;BME280;25175;50.140;18.990;2022-09-30T06:22:27;97841.03;;;10.23;76.22
39491;BME280;25175;50.140;18.990;2022-09-30T06:25:30;97845.25;;;10.24;75.46
39491;BME280;25175;50.140;18.990;2022-09-30T06:28:33;97847.88;;;10.24;75.59
39491;BME280;25175;50.140;18.990;2022-09-30T06:31:36;97855.28;;;10.27;76.34
39491;BME280;25175;50.140;18.990;2022-09-30T06:34:38;97848.59;;;10.31;75.75
39491;BME280;25175;50.140;18.990;2022-09-30T06:37:41;97856.59;;;10.36;75.25
39491;BME280;25175;50.140;18.990;2022-09-30T06:40:43;97857.59;;;10.42;75.49
39491;BME280;25175;50.140;18.990;2022-09-30T06:43:49;97859.59;;;10.40;75.85
39491;BME280;25175;50.140;18.990;2022-09-30T06:46:53;97855.59;;;10.37;75.92
39491;BME280;25175;50.140;18.990;2022-09-30T06:49:55;97852.59;;;10.34;76.29
39491;BME280;25175;50.140;18.990;2022-09-30T06:52:59;97851.00;;;10.33;76.18
39491;BME280;25175;50.140;18.990;2022-09-30T06:56:02;97866.50;;;10.34;76.50
39491;BME280;25175;50.140;18.990;2022-09-30T06:59:05;97861.91;;;10.30;76.82
39491;BME280;25175;50.140;18.990;2022-09-30T07:02:10;97868.34;;;10.27;76.81
39491;BME280;25175;50.140;18.990;2022-09-30T07:05:13;97873.59;;;10.27;76.57
39491;BME280;25175;50.140;18.990;2022-09-30T07:08:16;97865.97;;;10.26;77.60
39491;BME280;25175;50.140;18.990;2022-09-30T07:11:18;97858.34;;;10.24;77.35
39491;BME280;25175;50.140;18.990;2022-09-30T07:14:20;97872.00;;;10.26;77.70
39491;BME280;25175;50.140;18.990;2022-09-30T07:17:25;97867.56;;;10.27;77.82
39491;BME280;25175;50.140;18.990;2022-09-30T07:20:28;97872.81;;;10.27;77.43
39491;BME280;25175;50.140;18.990;2022-09-30T07:23:30;97877.41;;;10.31;78.11
39491;BME280;25175;50.140;18.990;2022-09-30T07:26:32;97875.34;;;10.33;78.26
39491;BME280;25175;50.140;18.990;2022-09-30T07:29:35;97872.53;;;10.35;77.72
39491;BME280;25175;50.140;18.990;2022-09-30T07:32:38;97883.00;;;10.35;78.06
39491;BME280;25175;50.140;18.990;2022-09-30T07:35:41;97881.97;;;10.36;78.35
39491;BME280;25175;50.140;18.990;2022-09-30T07:38:50;97876.91;;;10.41;78.42
39491;BME280;25175;50.140;18.990;2022-09-30T07:41:53;97872.63;;;10.46;78.60
39491;BME280;25175;50.140;18.990;2022-09-30T07:44:55;97883.06;;;10.53;78.32
39491;BME280;25175;50.140;18.990;2022-09-30T07:47:59;97881.38;;;10.58;78.26
39491;BME280;25175;50.140;18.990;2022-09-30T07:51:01;97885.19;;;10.62;78.72
39491;BME280;25175;50.140;18.990;2022-09-30T07:54:06;97890.56;;;10.67;78.40
39491;BME280;25175;50.140;18.990;2022-09-30T07:57:09;97889.34;;;10.70;78.05
39491;BME280;25175;50.140;18.990;2022-09-30T08:00:11;97900.97;;;10.74;78.02
39491;BME280;25175;50.140;18.990;2022-09-30T08:03:15;97893.13;;;10.74;77.97
39491;BME280;25175;50.140;18.990;2022-09-30T08:06:18;97892.91;;;10.75;77.82
39491;BME280;25175;50.140;18.990;2022-09-30T08:09:22;97902.75;;;10.80;78.37
39491;BME280;25175;50.140;18.990;2022-09-30T08:12:24;97899.94;;;10.81;77.81
39491;BME280;25175;50.140;18.990;2022-09-30T08:15:26;97914.41;;;10.84;78.67
39491;BME280;25175;50.140;18.990;2022-09-30T08:18:30;97917.41;;;10.87;78.26
39491;BME280;25175;50.140;18.990;2022-09-30T08:21:32;97915.94;;;10.91;78.36
39491;BME280;25175;50.140;18.990;2022-09-30T08:24:34;97916.78;;;10.92;77.92
39491;BME280;25175;50.140;18.990;2022-09-30T08:27:36;97917.34;;;10.94;78.27
39491;BME280;25175;50.140;18.990;2022-09-30T08:30:39;97922.59;;;10.94;77.90
39491;BME280;25175;50.140;18.990;2022-09-30T08:33:43;97923.16;;;10.96;77.69
39491;BME280;25175;50.140;18.990;2022-09-30T08:36:45;97927.41;;;10.97;77.48
39491;BME280;25175;50.140;18.990;2022-09-30T08:39:47;97924.19;;;10.95;77.68
39491;BME280;25175;50.140;18.990;2022-09-30T08:43:02;97929.06;;;10.91;77.76
39491;BME280;25175;50.140;18.990;2022-09-30T08:46:16;97923.00;;;10.91;77.74
39491;BME280;25175;50.140;18.990;2022-09-30T08:49:38;97931.84;;;10.96;78.19
39491;BME280;25175;50.140;18.990;2022-09-30T08:52:46;97933.44;;;10.97;78.33
39491;BME280;25175;50.140;18.990;2022-09-30T08:55:50;97925.72;;;11.02;78.26
39491;BME280;25175;50.140;18.990;2022-09-30T08:59:00;97932.72;;;11.08;78.40
39491;BME280;25175;50.140;18.990;2022-09-30T09:02:13;97930.25;;;11.13;78.48
39491;BME280;25175;50.140;18.990;2022-09-30T09:05:27;97933.22;;;11.17;77.71
39491;BME280;25175;50.140;18.990;2022-09-30T09:08:42;97929.00;;;11.16;77.72
39491;BME280;25175;50.140;18.990;2022-09-30T09:12:00;97932.66;;;11.15;78.01
39491;BME280;25175;50.140;18.990;2022-09-30T09:15:16;97937.44;;;11.18;77.91
39491;BME280;25175;50.140;18.990;2022-09-30T09:18:41;97944.72;;;11.16;77.63
39491;BME280;25175;50.140;18.990;2022-09-30T09:21:52;97937.75;;;11.10;77.96
39491;BME280;25175;50.140;18.990;2022-09-30T09:24:57;97951.63;;;11.10;78.02
39491;BME280;25175;50.140;18.990;2022-09-30T09:28:02;97947.19;;;11.11;78.56
39491;BME280;25175;50.140;18.990;2022-09-30T09:31:11;97944.38;;;11.12;78.24
39491;BME280;25175;50.140;18.990;2022-09-30T09:34:16;97941.16;;;11.10;78.34
39491;BME280;25175;50.140;18.990;2022-09-30T09:37:25;97950.84;;;11.10;78.78
39491;BME280;25175;50.140;18.990;2022-09-30T09:40:50;97949.63;;;11.12;78.92
39491;BME280;25175;50.140;18.990;2022-09-30T09:44:02;97950.41;;;11.13;78.31
39491;BME280;25175;50.140;18.990;2022-09-30T09:47:09;97950.63;;;11.11;78.80
39491;BME280;25175;50.140;18.990;2022-09-30T09:50:18;97960.31;;;11.11;78.60
39491;BME280;25175;50.140;18.990;2022-09-30T09:53:38;97960.38;;;11.04;78.52
39491;BME280;25175;50.140;18.990;2022-09-30T09:56:43;97963.00;;;11.04;78.68
39491;BME280;25175;50.140;18.990;2022-09-30T09:59:54;97956.28;;;11.08;79.29
39491;BME280;25175;50.140;18.990;2022-09-30T10:03:03;97963.09;;;11.16;79.40
39491;BME280;25175;50.140;18.990;2022-09-30T10:06:07;97969.41;;;11.26;78.97
39491;BME280;25175;50.140;18.990;2022-09-30T10:09:26;97962.72;;;11.30;78.54
39491;BME280;25175;50.140;18.990;2022-09-30T10:12:29;97970.59;;;11.30;78.30
39491;BME280;25175;50.140;18.990;2022-09-30T10:15:31;97969.91;;;11.35;78.73
39491;BME280;25175;50.140;18.990;2022-09-30T10:18:37;97981.72;;;11.44;79.10
39491;BME280;25175;50.140;18.990;2022-09-30T10:21:40;97972.41;;;11.48;78.64
39491;BME280;25175;50.140;18.990;2022-09-30T10:24:45;97971.97;;;11.51;78.61
39491;BME280;25175;50.140;18.990;2022-09-30T10:27:50;97984.88;;;11.52;78.40
39491;BME280;25175;50.140;18.990;2022-09-30T10:30:58;97987.69;;;11.51;77.89
39491;BME280;25175;50.140;18.990;2022-09-30T10:34:10;97994.56;;;11.52;77.46
39491;BME280;25175;50.140;18.990;2022-09-30T10:37:17;97991.72;;;11.53;77.79
39491;BME280;25175;50.140;18.990;2022-09-30T10:40:26;97996.16;;;11.53;77.43
39491;BME280;25175;50.140;18.990;2022-09-30T10:43:34;97988.44;;;11.58;77.79
39491;BME280;25175;50.140;18.990;2022-09-30T10:46:40;97999.50;;;11.60;77.06
39491;BME280;25175;50.140;18.990;2022-09-30T10:49:45;98002.13;;;11.60;77.39
39491;BME280;25175;50.140;18.990;2022-09-30T10:52:54;98002.13;;;11.60;77.15
39491;BME280;25175;50.140;18.990;2022-09-30T10:55:58;98003.59;;;11.56;77.03
39491;BME280;25175;50.140;18.990;2022-09-30T10:59:04;98004.63;;;11.55;77.52
39491;BME280;25175;50.140;18.990;2022-09-30T11:02:20;97998.66;;;11.48;77.64
39491;BME280;25175;50.140;18.990;2022-09-30T11:05:26;98008.13;;;11.49;77.72
39491;BME280;25175;50.140;18.990;2022-09-30T11:08:35;98009.91;;;11.48;77.39
39491;BME280;25175;50.140;18.990;2022-09-30T11:11:45;98016.41;;;11.46;77.97
39491;BME280;25175;50.140;18.990;2022-09-30T11:14:57;98011.75;;;11.48;78.07
39491;BME280;25175;50.140;18.990;2022-09-30T11:18:13;98014.75;;;11.51;78.06
39491;BME280;25175;50.140;18.990;2022-09-30T11:21:20;98017.16;;;11.53;78.13
39491;BME280;25175;50.140;18.990;2022-09-30T11:24:28;98021.78;;;11.51;77.67
39491;BME280;25175;50.140;18.990;2022-09-30T11:27:42;98028.69;;;11.52;78.04
39491;BME280;25175;50.140;18.990;2022-09-30T11:30:53;98027.19;;;11.56;78.24
39491;BME280;25175;50.140;18.990;2022-09-30T11:34:13;98035.44;;;11.59;78.12
39491;BME280;25175;50.140;18.990;2022-09-30T11:37:26;98032.38;;;11.62;77.96
39491;BME280;25175;50.140;18.990;2022-09-30T11:40:36;98025.91;;;11.65;78.13
39491;BME280;25175;50.140;18.990;2022-09-30T11:43:48;98029.53;;;11.64;78.19
39491;BME280;25175;50.140;18.990;2022-09-30T11:47:16;98044.84;;;11.67;78.13
39491;BME280;25175;50.140;18.990;2022-09-30T11:50:30;98042.41;;;11.65;78.19
39491;BME280;25175;50.140;18.990;2022-09-30T11:53:43;98034.94;;;11.69;77.96
39491;BME280;25175;50.140;18.990;2022-09-30T11:56:53;98040.19;;;11.69;77.81
39491;BME280;25175;50.140;18.990;2022-09-30T12:00:03;98039.94;;;11.70;77.89
39491;BME280;25175;50.140;18.990;2022-09-30T12:03:16;98047.03;;;11.70;77.86
39491;BME280;25175;50.140;18.990;2022-09-30T12:06:25;98048.06;;;11.69;77.83
39491;BME280;25175;50.140;18.990;2022-09-30T12:09:31;98049.06;;;11.68;77.72
39491;BME280;25175;50.140;18.990;2022-09-30T12:12:36;98043.81;;;11.68;77.66
39491;BME280;25175;50.140;18.990;2022-09-30T12:15:41;98048.63;;;11.71;77.66
39491;BME280;25175;50.140;18.990;2022-09-30T12:18:50;98056.88;;;11.74;77.74
39491;BME280;25175;50.140;18.990;2022-09-30T12:21:59;98059.84;;;11.78;77.54
39491;BME280;25175;50.140;18.990;2022-09-30T12:25:11;98053.81;;;11.77;77.91
39491;BME280;25175;50.140;18.990;2022-09-30T12:28:22;98051.19;;;11.77;77.78
39491;BME280;25175;50.140;18.990;2022-09-30T12:32:03;98063.06;;;11.80;77.92
39491;BME280;25175;50.140;18.990;2022-09-30T12:35:29;98059.78;;;11.84;77.78
39491;BME280;25175;50.140;18.990;2022-09-30T12:39:16;98065.38;;;11.88;77.85
39491;BME280;25175;50.140;18.990;2022-09-30T12:42:44;98079.88;;;11.97;77.96
39491;BME280;25175;50.140;18.990;2022-09-30T12:46:13;98082.75;;;12.07;77.99
39491;BME280;25175;50.140;18.990;2022-09-30T12:49:21;98087.50;;;12.16;77.66
39491;BME280;25175;50.140;18.990;2022-09-30T12:52:25;98084.00;;;12.22;77.06
39491;BME280;25175;50.140;18.990;2022-09-30T12:55:38;98090.63;;;12.25;76.82
39491;BME280;25175;50.140;18.990;2022-09-30T12:58:44;98082.53;;;12.26;76.78
39491;BME280;25175;50.140;18.990;2022-09-30T13:01:48;98090.53;;;12.31;76.81
39491;BME280;25175;50.140;18.990;2022-09-30T13:04:52;98092.50;;;12.36;76.85
39491;BME280;25175;50.140;18.990;2022-09-30T13:08:22;98097.66;;;12.42;76.56
39491;BME280;25175;50.140;18.990;2022-09-30T13:11:33;98100.19;;;12.49;76.09
39491;BME280;25175;50.140;18.990;2022-09-30T13:14:36;98104.44;;;12.50;75.77
39491;BME280;25175;50.140;18.990;2022-09-30T13:17:43;98104.56;;;12.55;75.87
39491;BME280;25175;50.140;18.990;2022-09-30T13:20:51;98094.19;;;12.60;75.53
39491;BME280;25175;50.140;18.990;2022-09-30T13:23:55;98099.78;;;12.63;75.36
39491;BME280;25175;50.140;18.990;2022-09-30T13:27:06;98105.84;;;12.64;75.04
39491;BME280;25175;50.140;18.990;2022-09-30T13:30:39;98109.72;;;12.61;75.05
39491;BME280;25175;50.140;18.990;2022-09-30T13:33:46;98110.97;;;12.59;75.06
39491;BME280;25175;50.140;18.990;2022-09-30T13:36:58;98109.53;;;12.45;75.02
39491;BME280;25175;50.140;18.990;2022-09-30T13:40:02;98111.47;;;12.38;75.34
39491;BME280;25175;50.140;18.990;2022-09-30T13:43:09;98119.66;;;12.30;75.64
39491;BME280;25175;50.140;18.990;2022-09-30T13:46:23;98114.34;;;12.18;75.86
39491;BME280;25175;50.140;18.990;2022-09-30T13:49:37;98115.44;;;12.11;76.25
39491;BME280;25175;50.140;18.990;2022-09-30T13:52:44;98110.28;;;12.04;76.27
39491;BME280;25175;50.140;18.990;2022-09-30T13:55:50;98105.66;;;12.00;76.67
39491;BME280;25175;50.140;18.990;2022-09-30T13:59:13;98110.13;;;11.99;76.89
39491;BME280;25175;50.140;18.990;2022-09-30T14:02:37;98106.69;;;11.99;77.18
39491;BME280;25175;50.140;18.990;2022-09-30T14:05:52;98115.59;;;11.98;77.32
39491;BME280;25175;50.140;18.990;2022-09-30T14:09:25;98115.13;;;12.01;77.49
39491;BME280;25175;50.140;18.990;2022-09-30T14:12:44;98117.91;;;12.06;77.04
39491;BME280;25175;50.140;18.990;2022-09-30T14:19:19;98109.75;;;12.14;76.98
39491;BME280;25175;50.140;18.990;2022-09-30T14:22:27;98104.84;;;12.17;76.86
39491;BME280;25175;50.140;18.990;2022-09-30T14:25:41;98111.84;;;12.23;76.79
39491;BME280;25175;50.140;18.990;2022-09-30T14:28:52;98109.59;;;12.27;76.63
39491;BME280;25175;50.140;18.990;2022-09-30T14:31:58;98115.31;;;12.35;76.44
39491;BME280;25175;50.140;18.990;2022-09-30T14:35:17;98124.72;;;12.43;76.16
39491;BME280;25175;50.140;18.990;2022-09-30T14:38:21;98122.47;;;12.46;75.44
39491;BME280;25175;50.140;18.990;2022-09-30T14:41:30;98122.03;;;12.49;75.95
39491;BME280;25175;50.140;18.990;2022-09-30T14:44:37;98121.34;;;12.54;75.34
39491;BME280;25175;50.140;18.990;2022-09-30T14:47:43;98129.59;;;12.57;75.13
39491;BME280;25175;50.140;18.990;2022-09-30T14:50:54;98130.53;;;12.63;74.64
39491;BME280;25175;50.140;18.990;2022-09-30T14:53:59;98121.97;;;12.67;74.84
39491;BME280;25175;50.140;18.990;2022-09-30T14:57:14;98133.06;;;12.69;74.06
39491;BME280;25175;50.140;18.990;2022-09-30T15:00:26;98145.63;;;12.67;74.05
39491;BME280;25175;50.140;18.990;2022-09-30T15:03:32;98141.53;;;12.71;74.32
39491;BME280;25175;50.140;18.990;2022-09-30T15:06:37;98155.03;;;12.75;73.93
39491;BME280;25175;50.140;18.990;2022-09-30T15:09:43;98148.97;;;12.74;73.82
39491;BME280;25175;50.140;18.990;2022-09-30T15:12:49;98155.25;;;12.73;74.07
39491;BME280;25175;50.140;18.990;2022-09-30T15:15:52;98165.41;;;12.70;74.00
39491;BME280;25175;50.140;18.990;2022-09-30T15:18:56;98163.81;;;12.69;74.27
39491;BME280;25175;50.140;18.990;2022-09-30T15:22:01;98164.38;;;12.71;74.29
39491;BME280;25175;50.140;18.990;2022-09-30T15:25:10;98167.00;;;12.71;74.75
39491;BME280;25175;50.140;18.990;2022-09-30T15:28:15;98164.59;;;12.69;74.36
39491;BME280;25175;50.140;18.990;2022-09-30T15:31:22;98162.66;;;12.65;74.36
39491;BME280;25175;50.140;18.990;2022-09-30T15:34:26;98159.44;;;12.63;74.62
39491;BME280;25175;50.140;18.990;2022-09-30T15:37:30;98167.63;;;12.55;74.43
39491;BME280;25175;50.140;18.990;2022-09-30T15:40:35;98176.84;;;12.46;74.91
39491;BME280;25175;50.140;18.990;2022-09-30T15:43:53;98161.22;;;12.33;75.10
39491;BME280;25175;50.140;18.990;2022-09-30T15:47:03;98175.38;;;12.32;75.24
39491;BME280;25175;50.140;18.990;2022-09-30T15:50:34;98174.81;;;12.30;75.52
39491;BME280;25175;50.140;18.990;2022-09-30T15:53:45;98179.63;;;12.33;75.58
39491;BME280;25175;50.140;18.990;2022-09-30T15:56:48;98184.28;;;12.31;75.63
39491;BME280;25175;50.140;18.990;2022-09-30T16:00:00;98190.44;;;12.25;75.51
39491;BME280;25175;50.140;18.990;2022-09-30T16:03:24;98186.47;;;12.16;75.99
39491;BME280;25175;50.140;18.990;2022-09-30T16:06:30;98193.78;;;12.14;76.19
39491;BME280;25175;50.140;18.990;2022-09-30T16:09:36;98180.28;;;12.10;75.83
39491;BME280;25175;50.140;18.990;2022-09-30T16:12:41;98189.97;;;12.10;76.13
39491;BME280;25175;50.140;18.990;2022-09-30T16:15:51;98195.44;;;12.08;76.10
39491;BME280;25175;50.140;18.990;2022-09-30T16:18:55;98198.72;;;12.04;76.12
39491;BME280;25175;50.140;18.990;2022-09-30T16:21:59;98210.47;;;12.01;76.06
39491;BME280;25175;50.140;18.990;2022-09-30T16:25:10;98217.53;;;12.01;76.43
39491;BME280;25175;50.140;18.990;2022-09-30T16:28:15;98207.25;;;11.99;76.31
39491;BME280;25175;50.140;18.990;2022-09-30T16:31:23;98216.75;;;12.00;76.43
39491;BME280;25175;50.140;18.990;2022-09-30T16:34:27;98216.28;;;12.03;76.35
